createdAt,value
2018-04-13T00:02:02.657Z,10.2
2018-04-13T00:07:03.398Z,10.1
2018-04-13T00:12:03.338Z,10.1
2018-04-13T00:17:03.043Z,10.0
2018-04-13T00:22:03.209Z,9.9
2018-04-13T00:27:03.060Z,9.9
2018-04-13T00:32:03.586Z,9.9
2018-04-13T00:37:03.593Z,9.8
2018-04-13T00:42:03.153Z,9.7
2018-04-13T00:47:03.041Z,9.6
2018-04-13T00:52:02.931Z,9.6
2018-04-13T00:57:02.734Z,9.5
2018-04-13T01:02:03.491Z,9.3
2018-04-13T01:07:03.504Z,9.2
2018-04-13T01:12:03.569Z,9.2
2018-04-13T01:17:03.089Z,9.1
2018-04-13T01:22:03.379Z,8.8
2018-04-13T01:27:03.080Z,8.7
2018-04-13T01:32:02.991Z,8.6
2018-04-13T01:37:03.001Z,8.5
2018-04-13T01:42:02.707Z,8.5
2018-04-13T01:47:03.664Z,8.6
2018-04-13T01:52:03.363Z,8.6
2018-04-13T01:57:02.945Z,8.6
2018-04-13T02:02:03.519Z,8.5
2018-04-13T02:07:03.056Z,8.5
2018-04-13T02:12:03.673Z,8.5
2018-04-13T02:17:03.399Z,8.3
2018-04-13T02:22:03.122Z,8.3
2018-04-13T02:27:02.857Z,8.2
2018-04-13T02:32:03.492Z,8.3
2018-04-13T02:37:03.178Z,8.3
2018-04-13T02:42:03.158Z,8.3
2018-04-13T02:47:03.281Z,8.2
2018-04-13T02:52:03.437Z,8.3
2018-04-13T02:57:03.461Z,8.3
2018-04-13T03:02:03.706Z,8.1
2018-04-13T03:07:03.088Z,8.2
2018-04-13T03:12:03.198Z,8.2
2018-04-13T03:17:03.379Z,8.2
2018-04-13T03:22:03.387Z,8.2
2018-04-13T03:27:03.501Z,8.1
2018-04-13T03:32:03.545Z,8.1
2018-04-13T03:37:03.608Z,8.0
2018-04-13T03:42:02.746Z,8.0
2018-04-13T03:47:02.995Z,7.9
2018-04-13T03:52:03.132Z,7.9
2018-04-13T03:57:03.139Z,7.8
2018-04-13T04:02:03.550Z,7.9
2018-04-13T04:07:03.521Z,7.9
2018-04-13T04:12:02.862Z,7.8
2018-04-13T04:17:12.533Z,7.8
2018-04-13T04:22:03.455Z,7.7
2018-04-13T04:27:03.722Z,7.5
2018-04-13T04:32:13.409Z,7.6
2018-04-13T04:37:03.422Z,7.5
2018-04-13T04:42:03.111Z,7.6
2018-04-13T04:47:11.665Z,7.8
2018-04-13T04:52:03.314Z,7.7
2018-04-13T04:57:03.505Z,7.9
2018-04-13T05:02:13.699Z,8.1
2018-04-13T05:07:03.512Z,8.1
2018-04-13T05:12:02.889Z,8.1
2018-04-13T05:17:13.054Z,8.2
2018-04-13T05:22:03.270Z,8.3
2018-04-13T05:27:03.341Z,8.3
2018-04-13T05:32:13.292Z,8.3
2018-04-13T05:37:03.658Z,8.3
2018-04-13T05:42:02.814Z,8.4
2018-04-13T05:47:13.447Z,8.4
2018-04-13T05:52:03.156Z,8.5
2018-04-13T05:57:03.401Z,8.7
2018-04-13T06:02:13.957Z,8.9
2018-04-13T06:07:02.859Z,9.2
2018-04-13T06:12:02.975Z,9.5
2018-04-13T06:17:13.697Z,9.9
2018-04-13T06:22:03.560Z,10.2
2018-04-13T06:27:03.696Z,10.6
2018-04-13T06:32:16.678Z,10.9
2018-04-13T06:37:03.165Z,10.8
2018-04-13T06:42:03.328Z,11.2
2018-04-13T06:47:14.030Z,11.2
2018-04-13T06:52:02.740Z,11.1
2018-04-13T06:57:02.835Z,11.0
2018-04-13T07:02:13.600Z,11.4
2018-04-13T07:07:03.458Z,11.3
2018-04-13T07:12:02.734Z,11.8
2018-04-13T07:17:12.455Z,12.0
2018-04-13T07:22:03.287Z,12.0
2018-04-13T07:27:03.471Z,12.3
2018-04-13T07:32:13.857Z,12.6
2018-04-13T07:37:02.774Z,13.2
2018-04-13T07:42:02.871Z,13.2
2018-04-13T07:47:17.455Z,13.7
2018-04-13T07:52:03.303Z,14.2
2018-04-13T07:57:03.471Z,14.7
2018-04-13T08:02:13.031Z,15.3
2018-04-13T08:07:03.095Z,15.3
2018-04-13T08:12:03.356Z,15.9
2018-04-13T08:17:10.559Z,16.0
2018-04-13T08:22:02.732Z,16.0
2018-04-13T08:27:02.899Z,16.1
2018-04-13T08:32:13.490Z,16.0
2018-04-13T08:37:03.394Z,16.1
2018-04-13T08:42:03.521Z,16.0
2018-04-13T08:47:12.869Z,16.1
2018-04-13T08:52:02.963Z,16.1
2018-04-13T08:57:03.227Z,16.1
2018-04-13T09:02:13.360Z,16.2
2018-04-13T09:07:02.794Z,16.2
2018-04-13T09:12:03.032Z,16.3
2018-04-13T09:17:17.393Z,16.4
2018-04-13T09:22:03.544Z,16.5
2018-04-13T09:27:03.676Z,16.2
2018-04-13T09:32:09.016Z,16.2
2018-04-13T09:37:03.050Z,16.2
2018-04-13T09:42:03.145Z,16.3
2018-04-13T09:47:13.413Z,16.6
2018-04-13T09:52:02.587Z,16.6
2018-04-13T09:57:02.763Z,16.5
2018-04-13T10:02:13.266Z,16.4
2018-04-13T10:07:03.417Z,16.5
2018-04-13T10:12:03.636Z,16.3
2018-04-13T10:17:13.657Z,16.3
2018-04-13T10:22:02.889Z,16.2
2018-04-13T10:27:03.126Z,16.1
2018-04-13T10:32:13.612Z,16.0
2018-04-13T10:37:03.552Z,15.7
2018-04-13T10:42:02.651Z,15.6
2018-04-13T10:47:13.160Z,15.3
2018-04-13T10:52:03.037Z,15.2
2018-04-13T10:57:03.205Z,15.2
2018-04-13T11:02:13.415Z,15.1
2018-04-13T11:07:02.818Z,15.2
2018-04-13T11:12:02.996Z,15.1
2018-04-13T11:17:03.572Z,15.3
2018-04-13T11:22:03.527Z,15.0
2018-04-13T11:27:02.773Z,14.4
2018-04-13T11:32:13.385Z,14.1
2018-04-13T11:37:03.154Z,14.1
2018-04-13T11:42:03.372Z,13.8
2018-04-13T11:47:13.711Z,13.6
2018-04-13T11:52:02.758Z,13.5
2018-04-13T11:57:02.915Z,13.5
2018-04-13T12:02:14.012Z,13.4
2018-04-13T12:07:03.387Z,13.4
2018-04-13T12:12:02.768Z,13.4
2018-04-13T12:17:12.733Z,13.4
2018-04-13T12:22:03.294Z,13.5
2018-04-13T12:27:03.475Z,13.5
2018-04-13T12:32:17.167Z,13.6
2018-04-13T12:37:02.832Z,13.9
2018-04-13T12:42:02.924Z,14.6
2018-04-13T12:47:10.556Z,15.1
2018-04-13T12:52:03.482Z,15.4
2018-04-13T12:57:02.754Z,15.4
2018-04-13T13:02:16.710Z,15.4
2018-04-13T13:07:03.231Z,15.4
2018-04-13T13:12:03.494Z,15.6
2018-04-13T13:17:13.087Z,15.5
2018-04-13T13:22:03.457Z,15.5
2018-04-13T13:27:03.637Z,15.5
2018-04-13T13:32:13.225Z,15.5
2018-04-13T13:37:03.033Z,15.4
2018-04-13T13:42:03.159Z,15.5
2018-04-13T13:47:13.565Z,15.4
2018-04-13T13:52:03.112Z,15.4
2018-04-13T13:57:03.344Z,15.4
2018-04-13T14:02:17.068Z,15.5
2018-04-13T14:07:02.883Z,15.6
2018-04-13T14:12:03.137Z,15.6
2018-04-13T14:17:13.892Z,15.5
2018-04-13T14:22:03.614Z,15.6
2018-04-13T14:27:02.779Z,15.6
2018-04-13T14:32:11.162Z,16.0
2018-04-13T14:37:03.243Z,15.9
2018-04-13T14:42:03.430Z,16.1
2018-04-13T14:47:17.545Z,16.4
2018-04-13T14:52:03.384Z,16.7
2018-04-13T14:57:02.628Z,16.9
2018-04-13T15:02:10.390Z,17.3
2018-04-13T15:07:03.445Z,17.5
2018-04-13T15:12:02.722Z,17.8
2018-04-13T15:17:12.851Z,17.7
2018-04-13T15:22:03.264Z,18.2
2018-04-13T15:27:03.441Z,18.9
2018-04-13T15:32:13.859Z,21.2
2018-04-13T15:37:02.619Z,21.2
2018-04-13T15:42:02.789Z,23.5
2018-04-13T15:47:06.560Z,23.4
2018-04-13T15:52:02.846Z,27.5
2018-04-13T15:57:02.974Z,29.4
2018-04-13T16:02:13.545Z,29.4
2018-04-13T16:07:03.407Z,31.1
2018-04-13T16:12:03.159Z,32.3
2018-04-13T16:17:11.500Z,33.2
2018-04-13T16:22:03.581Z,33.5
2018-04-13T16:27:02.690Z,33.8
2018-04-13T16:32:13.622Z,33.7
2018-04-13T16:37:03.111Z,34.8
2018-04-13T16:42:03.275Z,38.5
2018-04-13T16:47:09.766Z,38.4
2018-04-13T16:52:03.519Z,39.8
2018-04-13T16:57:02.637Z,40.4
2018-04-13T17:02:19.774Z,40.6
2018-04-13T17:07:03.333Z,40.3
2018-04-13T17:12:03.564Z,39.7
2018-04-13T17:17:14.131Z,39.7
2018-04-13T17:22:02.948Z,38.6
2018-04-13T17:27:03.039Z,38.6
2018-04-13T17:32:13.380Z,37.1
2018-04-13T17:37:03.459Z,36.0
2018-04-13T17:42:03.565Z,36.0
2018-04-13T17:47:16.113Z,31.7
2018-04-13T17:52:03.452Z,27.4
2018-04-13T17:57:02.613Z,24.6
2018-04-13T18:02:13.196Z,21.2
2018-04-13T18:07:03.469Z,20.2
2018-04-13T18:12:02.732Z,19.2
2018-04-13T18:17:17.269Z,19.2
2018-04-13T18:22:03.135Z,17.8
2018-04-13T18:27:03.126Z,17.2
2018-04-13T18:32:13.095Z,16.6
2018-04-13T18:37:03.230Z,16.1
2018-04-13T18:42:03.324Z,16.0
2018-04-13T18:47:11.405Z,15.1
2018-04-13T18:52:03.545Z,15.1
2018-04-13T18:57:02.759Z,14.7
2018-04-13T19:02:03.255Z,14.1
2018-04-13T19:07:03.204Z,13.9
2018-04-13T19:12:03.476Z,13.8
2018-04-13T19:17:03.618Z,13.2
2018-04-13T19:22:02.874Z,13.1
2018-04-13T19:27:02.983Z,13.0
2018-04-13T19:32:03.548Z,12.7
2018-04-13T19:37:03.202Z,12.4
2018-04-13T19:42:03.236Z,12.4
2018-04-13T19:47:03.345Z,12.1
2018-04-13T19:52:03.454Z,12.0
2018-04-13T19:57:03.499Z,12.0
2018-04-13T20:02:03.792Z,11.7
2018-04-13T20:07:03.024Z,11.6
2018-04-13T20:12:03.245Z,11.6
2018-04-13T20:17:08.622Z,11.5
2018-04-13T20:22:03.454Z,11.4
2018-04-13T20:27:03.544Z,11.3
2018-04-13T20:32:07.528Z,11.0
2018-04-13T20:37:02.822Z,10.9
2018-04-13T20:42:02.882Z,10.8
2018-04-13T20:47:03.248Z,10.7
2018-04-13T20:52:03.184Z,10.7
2018-04-13T20:57:03.163Z,10.6
2018-04-13T21:02:03.338Z,10.5
2018-04-13T21:07:03.469Z,10.5
2018-04-13T21:12:03.702Z,10.3
2018-04-13T21:17:03.043Z,10.2
2018-04-13T21:22:03.077Z,10.1
2018-04-13T21:27:03.209Z,10.0
2018-04-13T21:32:03.217Z,9.6
2018-04-13T21:37:03.249Z,9.6
2018-04-13T21:42:03.314Z,9.5
2018-04-13T21:47:03.424Z,9.4
2018-04-13T21:52:03.456Z,9.3
2018-04-13T21:57:03.589Z,9.0
2018-04-13T22:02:02.901Z,9.0
2018-04-13T22:07:02.946Z,9.0
2018-04-13T22:12:03.576Z,9.0
2018-04-13T22:22:03.811Z,8.8
2018-04-13T22:27:03.185Z,8.6
2018-04-13T22:32:02.966Z,8.6
2018-04-13T22:37:02.896Z,8.6
2018-04-13T22:42:02.687Z,8.5
2018-04-13T22:47:03.283Z,8.3
2018-04-13T22:52:03.364Z,8.2
2018-04-13T22:57:03.169Z,8.1
2018-04-13T23:02:02.748Z,8.0
2018-04-13T23:07:03.584Z,8.0
2018-04-13T23:12:03.656Z,7.9
2018-04-13T23:17:03.421Z,7.9
2018-04-13T23:22:03.328Z,7.9
2018-04-13T23:27:03.178Z,7.8
2018-04-13T23:32:04.608Z,7.8
2018-04-13T23:37:02.769Z,7.8
2018-04-13T23:42:03.334Z,7.8
2018-04-13T23:47:02.959Z,7.5
2018-04-13T23:52:03.034Z,7.5
2018-04-13T23:57:03.617Z,7.3
